Terminal Aerodrome Forecast
Issued by NWS Melbourne, FL

Current Version | Previous Version | Text Only | Print | Product List | Glossary On
Versions: 1 2 3 4 5 6 7 8 9 10 11 12 13 14 15 16 17
243
FTUS42 KMLB 241739
TAFDAB
TAF
KDAB 241739Z 2418/2518 21015G25KT P6SM VCTS SCT030CB BKN050 OVC140
      TEMPO 2418/2419 VRB25G34KT 2SM TSRA BKN025CB
     FM241900 24016G24KT 5SM SHRA SCT020 OVC040
      TEMPO 2419/2423 VRB25G34KT 2SM TSRA BKN020CB OVC030
     FM242300 23015G23KT P6SM VCTS SCT030CB OVC060
      TEMPO 2423/2424 2SM TSRA BKN025CB OVC050
     FM250000 21015KT P6SM SCT030 OVC050
     FM251300 26018G25KT P6SM SCT030 BKN050=

USA.gov is the U.S. government's official web portal to all federal, state and local government web resources and services.